createdAt,value
2017-09-22T00:00:54.894Z,11.70
2017-09-22T00:03:21.528Z,12.23
2017-09-22T00:05:48.168Z,9.80
2017-09-22T00:08:14.801Z,14.30
2017-09-22T00:10:41.435Z,9.20
2017-09-22T00:13:08.059Z,10.37
2017-09-22T00:15:34.679Z,13.47
2017-09-22T00:18:01.304Z,14.07
2017-09-22T00:20:27.940Z,15.60
2017-09-22T00:22:54.550Z,12.93
2017-09-22T00:25:21.199Z,10.83
2017-09-22T00:27:47.806Z,13.57
2017-09-22T00:30:14.453Z,12.37
2017-09-22T00:32:41.074Z,10.20
2017-09-22T00:35:07.692Z,17.10
2017-09-22T00:37:34.319Z,13.73
2017-09-22T00:40:00.939Z,14.00
2017-09-22T00:42:27.578Z,11.97
2017-09-22T00:44:54.210Z,10.97
2017-09-22T00:47:20.821Z,11.47
2017-09-22T00:49:47.457Z,12.70
2017-09-22T00:52:14.079Z,13.43
2017-09-22T00:54:40.760Z,13.43
2017-09-22T00:57:07.397Z,12.23
2017-09-22T00:59:34.070Z,13.60
2017-09-22T01:02:00.682Z,10.30
2017-09-22T01:04:27.295Z,23.30
2017-09-22T01:06:53.937Z,12.10
2017-09-22T01:09:20.575Z,26.57
2017-09-22T01:11:47.173Z,10.20
2017-09-22T01:14:13.814Z,12.50
2017-09-22T01:16:40.435Z,12.13
2017-09-22T01:19:07.072Z,11.80
2017-09-22T01:21:33.708Z,14.53
2017-09-22T01:24:00.372Z,18.93
2017-09-22T01:26:26.998Z,13.90
2017-09-22T01:28:53.615Z,18.63
2017-09-22T01:31:20.249Z,15.80
2017-09-22T01:33:46.866Z,13.30
2017-09-22T01:36:13.511Z,11.30
2017-09-22T01:38:40.173Z,13.03
2017-09-22T01:41:06.802Z,13.67
2017-09-22T01:43:33.455Z,12.00
2017-09-22T01:46:00.072Z,12.53
2017-09-22T01:48:26.714Z,15.60
2017-09-22T01:50:53.378Z,15.60
2017-09-22T01:53:19.994Z,9.57
2017-09-22T01:55:46.611Z,10.47
2017-09-22T01:58:13.226Z,13.00
2017-09-22T02:00:39.854Z,12.00
2017-09-22T02:03:06.515Z,13.07
2017-09-22T02:05:33.148Z,15.80
2017-09-22T02:07:59.769Z,16.80
2017-09-22T02:10:26.400Z,12.60
2017-09-22T02:12:53.008Z,14.93
2017-09-22T02:15:19.667Z,20.80
2017-09-22T02:17:46.292Z,15.50
2017-09-22T02:20:12.925Z,12.93
2017-09-22T02:22:39.543Z,18.17
2017-09-22T02:25:06.192Z,15.87
2017-09-22T02:27:32.833Z,16.53
2017-09-22T02:29:59.451Z,21.07
2017-09-22T02:32:26.067Z,14.43
2017-09-22T02:34:52.710Z,13.10
2017-09-22T02:37:19.351Z,15.63
2017-09-22T02:39:45.991Z,15.10
2017-09-22T02:42:12.621Z,11.93
2017-09-22T02:44:39.257Z,13.90
2017-09-22T02:47:05.927Z,11.73
2017-09-22T02:49:32.556Z,12.47
2017-09-22T02:51:59.190Z,12.70
2017-09-22T02:54:25.841Z,16.03
2017-09-22T02:56:52.462Z,14.93
2017-09-22T02:59:19.085Z,14.70
2017-09-22T03:01:45.748Z,14.67
2017-09-22T03:04:12.367Z,13.20
2017-09-22T03:06:39.008Z,12.30
2017-09-22T03:09:05.623Z,15.10
2017-09-22T03:11:32.237Z,14.93
2017-09-22T03:13:58.872Z,16.07
2017-09-22T03:16:25.497Z,18.17
2017-09-22T03:18:52.142Z,17.93
2017-09-22T03:21:18.767Z,15.57
2017-09-22T03:23:45.423Z,15.53
2017-09-22T03:26:12.050Z,16.90
2017-09-22T03:28:38.691Z,17.17
2017-09-22T03:31:05.336Z,17.83
2017-09-22T03:33:31.940Z,16.70
2017-09-22T03:35:58.570Z,17.20
2017-09-22T03:38:25.208Z,15.70
2017-09-22T03:40:51.834Z,16.23
2017-09-22T03:43:18.454Z,15.37
2017-09-22T03:45:45.098Z,19.90
2017-09-22T03:48:11.731Z,16.63
2017-09-22T03:50:38.378Z,16.60
2017-09-22T03:53:05.015Z,17.60
2017-09-22T03:55:31.634Z,20.33
2017-09-22T03:57:58.280Z,21.30
2017-09-22T04:00:24.886Z,16.20
2017-09-22T04:02:51.504Z,15.50
2017-09-22T04:05:18.139Z,16.20
2017-09-22T04:07:45.139Z,14.10
2017-09-22T04:10:11.773Z,17.80
2017-09-22T04:12:38.385Z,17.13
2017-09-22T04:15:05.003Z,16.43
2017-09-22T04:17:31.726Z,18.83
2017-09-22T04:19:58.363Z,15.97
2017-09-22T04:22:24.999Z,17.93
2017-09-22T04:24:53.746Z,18.33
2017-09-22T04:27:20.543Z,17.20
2017-09-22T04:29:47.199Z,17.47
2017-09-22T04:32:13.811Z,18.77
2017-09-22T04:34:40.428Z,16.77
2017-09-22T04:37:07.060Z,19.07
2017-09-22T04:39:33.692Z,16.90
2017-09-22T04:42:00.349Z,21.13
2017-09-22T04:44:26.986Z,18.93
2017-09-22T04:46:53.612Z,19.70
2017-09-22T04:49:20.311Z,28.00
2017-09-22T04:51:46.942Z,21.13
2017-09-22T04:54:13.559Z,23.87
2017-09-22T04:56:40.203Z,18.93
2017-09-22T04:59:06.832Z,21.53
2017-09-22T05:01:33.452Z,21.10
2017-09-22T05:04:00.087Z,17.33
2017-09-22T05:06:26.717Z,9.43
2017-09-22T05:08:53.350Z,15.30
2017-09-22T05:11:19.971Z,11.83
2017-09-22T05:13:46.597Z,13.80
2017-09-22T05:16:13.219Z,14.87
2017-09-22T05:18:39.865Z,17.23
2017-09-22T05:21:06.494Z,9.33
2017-09-22T05:23:33.109Z,7.73
2017-09-22T05:25:59.736Z,8.87
2017-09-22T05:28:26.371Z,10.13
2017-09-22T05:30:53.019Z,11.03
2017-09-22T05:33:19.655Z,10.33
2017-09-22T05:35:46.283Z,17.67
2017-09-22T05:38:12.897Z,15.43
2017-09-22T05:40:39.564Z,12.40
2017-09-22T05:43:06.192Z,20.23
2017-09-22T05:45:35.635Z,17.00
2017-09-22T05:48:02.271Z,18.37
2017-09-22T05:50:28.880Z,11.83
2017-09-22T05:52:55.491Z,12.67
2017-09-22T05:55:22.131Z,17.03
2017-09-22T05:57:48.766Z,20.37
2017-09-22T06:00:15.406Z,18.33
2017-09-22T06:02:42.047Z,14.97
2017-09-22T06:05:08.705Z,13.53
2017-09-22T06:07:35.332Z,18.50
2017-09-22T06:10:01.974Z,23.53
2017-09-22T06:12:28.591Z,21.47
2017-09-22T06:14:55.219Z,18.40
2017-09-22T06:17:21.845Z,21.53
2017-09-22T06:19:48.483Z,22.40
2017-09-22T06:22:15.122Z,23.83
2017-09-22T06:24:41.754Z,28.30
2017-09-22T06:27:08.378Z,29.13
2017-09-22T06:29:35.031Z,26.40
2017-09-22T06:32:01.670Z,21.37
2017-09-22T06:34:28.291Z,20.50
2017-09-22T06:36:54.950Z,22.00
2017-09-22T06:39:21.593Z,29.67
2017-09-22T06:41:48.255Z,27.47
2017-09-22T06:44:14.913Z,26.37
2017-09-22T06:46:41.542Z,22.73
2017-09-22T06:49:08.198Z,25.10
2017-09-22T06:51:34.804Z,27.90
2017-09-22T06:54:01.430Z,25.40
2017-09-22T06:56:28.074Z,31.60
2017-09-22T06:58:54.690Z,25.93
2017-09-22T07:01:21.332Z,24.00
2017-09-22T07:03:47.943Z,27.07
2017-09-22T07:06:14.579Z,32.23
2017-09-22T07:08:41.208Z,27.30
2017-09-22T07:11:07.840Z,26.17
2017-09-22T07:13:34.499Z,27.90
2017-09-22T07:16:01.119Z,26.50
2017-09-22T07:18:27.767Z,26.63
2017-09-22T07:20:54.415Z,23.83
2017-09-22T07:23:21.055Z,24.70
2017-09-22T07:25:47.678Z,31.10
2017-09-22T07:28:14.336Z,23.33
2017-09-22T07:30:40.960Z,26.57
2017-09-22T07:33:07.586Z,29.77
2017-09-22T07:35:34.215Z,23.13
2017-09-22T07:38:00.847Z,38.40
2017-09-22T07:40:27.472Z,26.23
2017-09-22T07:42:54.112Z,24.10
2017-09-22T07:45:20.757Z,26.37
2017-09-22T07:47:47.397Z,26.00
2017-09-22T07:50:14.025Z,29.13
2017-09-22T07:52:40.656Z,27.40
2017-09-22T07:55:07.287Z,29.43
2017-09-22T07:57:33.915Z,26.93
2017-09-22T08:00:00.567Z,35.20
2017-09-22T08:02:27.210Z,30.60
2017-09-22T08:04:53.834Z,24.20
2017-09-22T08:07:20.470Z,28.00
2017-09-22T08:09:47.110Z,28.10
2017-09-22T08:12:13.775Z,26.23
2017-09-22T08:14:40.392Z,28.60
2017-09-22T08:17:07.034Z,28.63
2017-09-22T08:19:33.651Z,22.20
2017-09-22T08:22:00.283Z,25.00
2017-09-22T08:24:26.930Z,24.00
2017-09-22T08:26:53.555Z,24.17
2017-09-22T08:29:20.198Z,25.33
2017-09-22T08:31:46.838Z,27.23
2017-09-22T08:34:13.467Z,27.60
2017-09-22T08:36:40.099Z,26.67
2017-09-22T08:39:06.719Z,22.40
2017-09-22T08:41:33.346Z,23.13
2017-09-22T08:43:59.974Z,31.50
2017-09-22T08:46:27.073Z,25.50
2017-09-22T08:48:53.725Z,32.50
2017-09-22T08:51:20.344Z,20.70
2017-09-22T08:53:47.007Z,24.13
2017-09-22T08:56:13.636Z,23.03
2017-09-22T08:58:40.263Z,28.27
2017-09-22T09:01:06.899Z,21.67
2017-09-22T09:03:33.546Z,21.53
2017-09-22T09:06:00.195Z,24.10
2017-09-22T09:08:26.847Z,24.10
2017-09-22T09:10:53.508Z,24.03
2017-09-22T09:13:20.122Z,27.53
2017-09-22T09:15:46.747Z,25.37
2017-09-22T09:18:13.380Z,22.40
2017-09-22T09:20:39.993Z,20.07
2017-09-22T09:23:06.672Z,30.90
2017-09-22T09:25:33.270Z,24.50
2017-09-22T09:27:59.912Z,23.83
2017-09-22T09:30:26.547Z,24.70
2017-09-22T09:32:53.186Z,22.80
2017-09-22T09:35:19.810Z,18.80
2017-09-22T09:37:46.467Z,18.80
2017-09-22T09:40:13.087Z,20.23
2017-09-22T09:42:39.714Z,20.83
2017-09-22T09:45:06.352Z,17.77
2017-09-22T09:47:33.007Z,25.33
2017-09-22T09:49:59.620Z,18.10
2017-09-22T09:52:26.251Z,21.10
2017-09-22T09:54:52.893Z,16.27
2017-09-22T09:57:19.536Z,19.80
2017-09-22T09:59:46.172Z,23.70
2017-09-22T10:02:12.808Z,24.80
2017-09-22T10:04:39.450Z,21.37
2017-09-22T10:07:06.063Z,21.60
2017-09-22T10:09:34.240Z,22.63
2017-09-22T10:12:00.888Z,18.60
2017-09-22T10:14:27.634Z,24.10
2017-09-22T10:16:54.336Z,29.70
2017-09-22T10:19:20.947Z,26.40
2017-09-22T10:21:47.604Z,24.30
2017-09-22T10:24:14.276Z,29.70
2017-09-22T10:26:40.921Z,20.50
2017-09-22T10:29:07.558Z,24.20
2017-09-22T10:31:34.178Z,23.00
2017-09-22T10:34:00.824Z,18.00
2017-09-22T10:36:27.468Z,20.70
2017-09-22T10:38:54.082Z,19.80
2017-09-22T10:41:20.714Z,21.70
2017-09-22T10:43:47.338Z,16.33
2017-09-22T10:46:13.986Z,16.53
2017-09-22T10:48:40.679Z,16.80
2017-09-22T10:51:07.317Z,23.30
2017-09-22T10:53:33.940Z,18.43
2017-09-22T10:56:00.562Z,16.37
2017-09-22T10:58:27.200Z,19.70
2017-09-22T11:00:53.838Z,18.53
2017-09-22T11:03:20.499Z,16.50
2017-09-22T11:05:47.142Z,24.80
2017-09-22T11:08:13.783Z,18.53
2017-09-22T11:10:40.412Z,19.33
2017-09-22T11:13:07.039Z,15.67
2017-09-22T11:15:33.662Z,21.13
2017-09-22T11:18:00.279Z,14.07
2017-09-22T11:20:26.923Z,16.17
2017-09-22T11:22:53.548Z,17.60
2017-09-22T11:25:20.205Z,22.73
2017-09-22T11:27:46.812Z,16.60
2017-09-22T11:30:13.458Z,16.63
2017-09-22T11:32:40.117Z,21.90
2017-09-22T11:35:06.775Z,14.03
2017-09-22T11:37:33.395Z,16.80
2017-09-22T11:40:00.018Z,16.53
2017-09-22T11:42:26.666Z,16.03
2017-09-22T11:44:53.310Z,12.00
2017-09-22T11:47:19.960Z,15.90
2017-09-22T11:49:46.680Z,19.30
2017-09-22T11:52:13.315Z,16.13
2017-09-22T11:54:40.043Z,14.37
2017-09-22T11:57:06.663Z,14.33
2017-09-22T11:59:33.321Z,12.87
2017-09-22T12:01:59.948Z,14.53
2017-09-22T12:04:26.611Z,12.03
2017-09-22T12:06:53.253Z,10.40
2017-09-22T12:09:19.921Z,11.47
2017-09-22T12:11:46.531Z,6.23
2017-09-22T12:14:13.173Z,6.30
2017-09-22T12:16:39.811Z,10.13
2017-09-22T12:19:06.464Z,8.30
2017-09-22T12:21:33.121Z,10.63
2017-09-22T12:23:59.746Z,10.43
2017-09-22T12:26:26.389Z,9.17
2017-09-22T12:28:53.081Z,8.30
2017-09-22T12:31:19.714Z,9.03
2017-09-22T12:33:46.358Z,16.87
2017-09-22T12:36:12.985Z,9.57
2017-09-22T12:38:39.619Z,8.17
2017-09-22T12:41:06.270Z,11.40
2017-09-22T12:43:32.953Z,14.20
2017-09-22T12:45:59.619Z,13.57
2017-09-22T12:48:26.267Z,12.40
2017-09-22T12:50:52.907Z,14.57
2017-09-22T12:53:19.535Z,13.33
2017-09-22T12:55:46.179Z,14.77
2017-09-22T12:58:12.819Z,18.33
2017-09-22T13:00:39.440Z,16.00
2017-09-22T13:03:06.067Z,18.53
2017-09-22T13:05:32.724Z,17.60
2017-09-22T13:07:59.828Z,12.33
2017-09-22T13:10:26.442Z,11.33
2017-09-22T13:12:53.092Z,12.10
2017-09-22T13:15:19.742Z,15.40
2017-09-22T13:17:46.384Z,14.33
2017-09-22T13:20:13.000Z,13.97
2017-09-22T13:22:39.641Z,10.00
2017-09-22T13:25:06.267Z,10.47
2017-09-22T13:27:32.917Z,9.47
2017-09-22T13:29:59.542Z,11.03
2017-09-22T13:32:26.170Z,15.50
2017-09-22T13:34:52.807Z,11.77
2017-09-22T13:37:19.430Z,9.80
2017-09-22T13:39:46.103Z,11.83
2017-09-22T13:42:12.736Z,11.23
2017-09-22T13:44:39.396Z,11.07
2017-09-22T13:47:06.052Z,16.27
2017-09-22T13:49:32.741Z,14.00
2017-09-22T13:51:59.379Z,11.97
2017-09-22T13:54:26.015Z,17.53
2017-09-22T13:56:52.656Z,14.70
2017-09-22T13:59:19.276Z,12.33
2017-09-22T14:01:45.903Z,17.13
2017-09-22T14:04:12.552Z,10.00
2017-09-22T14:06:39.172Z,9.57
2017-09-22T14:09:05.830Z,11.53
2017-09-22T14:11:32.468Z,11.43
2017-09-22T14:13:59.097Z,10.90
2017-09-22T14:16:25.709Z,9.80
2017-09-22T14:18:52.347Z,7.63
2017-09-22T14:21:18.980Z,8.97
2017-09-22T14:23:45.611Z,12.20
2017-09-22T14:26:12.263Z,10.17
2017-09-22T14:28:38.883Z,12.73
2017-09-22T14:31:05.552Z,12.90
2017-09-22T14:33:32.202Z,12.23
2017-09-22T14:35:58.836Z,16.37
2017-09-22T14:38:25.488Z,12.80
2017-09-22T14:40:52.114Z,17.40
2017-09-22T14:43:18.754Z,12.90
2017-09-22T14:45:45.376Z,12.87
2017-09-22T14:48:12.423Z,12.53
2017-09-22T14:50:39.067Z,15.40
2017-09-22T14:53:05.703Z,12.40
2017-09-22T14:55:32.343Z,14.67
2017-09-22T14:57:58.987Z,11.30
2017-09-22T15:00:25.611Z,10.10
2017-09-22T15:02:52.246Z,14.20
2017-09-22T15:05:18.895Z,13.87
2017-09-22T15:07:45.509Z,11.93
2017-09-22T15:10:12.138Z,10.37
2017-09-22T15:12:38.782Z,18.63
2017-09-22T15:15:05.396Z,13.30
2017-09-22T15:17:32.020Z,14.87
2017-09-22T15:19:58.654Z,15.50
2017-09-22T15:22:25.287Z,9.20
2017-09-22T15:24:51.976Z,9.53
2017-09-22T15:27:18.639Z,10.00
2017-09-22T15:29:45.324Z,18.57
2017-09-22T15:32:11.973Z,9.83
2017-09-22T15:34:38.595Z,7.50
2017-09-22T15:37:05.272Z,11.30
2017-09-22T15:39:31.898Z,11.00
2017-09-22T15:41:58.535Z,12.67
2017-09-22T15:44:25.180Z,10.03
2017-09-22T15:46:51.828Z,7.90
2017-09-22T15:49:18.464Z,11.70
2017-09-22T15:51:45.120Z,9.37
2017-09-22T15:54:11.755Z,10.40
2017-09-22T15:56:38.392Z,7.67
2017-09-22T15:59:05.050Z,10.90
2017-09-22T16:01:31.697Z,8.80
2017-09-22T16:03:58.312Z,9.07
2017-09-22T16:06:25.022Z,9.00
2017-09-22T16:08:51.660Z,12.30
2017-09-22T16:11:18.306Z,7.27
2017-09-22T16:13:45.228Z,6.00
2017-09-22T16:16:11.873Z,8.40
2017-09-22T16:18:38.517Z,7.00
2017-09-22T16:21:05.155Z,10.57
2017-09-22T16:23:31.811Z,5.70
2017-09-22T16:25:58.437Z,6.83
2017-09-22T16:28:25.074Z,8.83
2017-09-22T16:30:51.691Z,8.07
2017-09-22T16:33:18.323Z,11.60
2017-09-22T16:35:44.967Z,7.00
2017-09-22T16:38:11.606Z,7.13
2017-09-22T16:40:38.232Z,19.93
2017-09-22T16:43:04.852Z,9.87
2017-09-22T16:45:31.474Z,9.40
2017-09-22T16:47:58.125Z,9.47
2017-09-22T16:50:24.737Z,11.23
2017-09-22T16:52:51.396Z,15.30
2017-09-22T16:55:18.035Z,16.70
2017-09-22T16:57:44.659Z,15.37
2017-09-22T17:00:11.298Z,20.10
2017-09-22T17:02:37.933Z,18.73
2017-09-22T17:05:04.563Z,15.40
2017-09-22T17:07:31.202Z,18.47
2017-09-22T17:09:57.832Z,18.30
2017-09-22T17:12:24.495Z,16.93
2017-09-22T17:14:51.148Z,21.77
2017-09-22T17:17:17.775Z,22.53
2017-09-22T17:19:44.428Z,23.63
2017-09-22T17:22:11.063Z,22.53
2017-09-22T17:24:37.678Z,23.23
2017-09-22T17:27:04.311Z,17.93
2017-09-22T17:29:30.936Z,20.90
2017-09-22T17:31:57.569Z,22.17
2017-09-22T17:34:24.211Z,26.10
2017-09-22T17:36:50.867Z,21.03
2017-09-22T17:39:17.517Z,20.53
2017-09-22T17:41:44.161Z,26.70
2017-09-22T17:44:10.804Z,22.57
2017-09-22T17:46:37.446Z,22.47
2017-09-22T17:49:04.094Z,20.30
2017-09-22T17:51:30.750Z,18.30
2017-09-22T17:53:57.411Z,19.57
2017-09-22T17:56:24.055Z,22.37
2017-09-22T17:58:50.695Z,22.43
2017-09-22T18:01:17.326Z,24.90
2017-09-22T18:03:43.994Z,24.43
2017-09-22T18:06:10.628Z,22.77
2017-09-22T18:08:37.258Z,25.33
2017-09-22T18:11:03.892Z,24.30
2017-09-22T18:13:30.545Z,22.40
2017-09-22T18:15:57.198Z,25.60
2017-09-22T18:18:23.843Z,23.70
2017-09-22T18:20:50.496Z,25.40
2017-09-22T18:23:17.144Z,22.07
2017-09-22T18:25:43.767Z,25.30
2017-09-22T18:28:10.413Z,24.77
2017-09-22T18:30:37.031Z,26.03
2017-09-22T18:33:03.712Z,32.20
2017-09-22T18:35:30.352Z,31.43
2017-09-22T18:37:57.003Z,34.67
2017-09-22T18:40:23.636Z,38.13
2017-09-22T18:42:50.259Z,38.43
2017-09-22T18:45:16.912Z,31.40
2017-09-22T18:47:43.562Z,33.03
2017-09-22T18:50:10.216Z,34.03
2017-09-22T18:52:36.875Z,30.27
2017-09-22T18:55:03.532Z,30.93
2017-09-22T18:57:30.159Z,32.17
2017-09-22T18:59:56.845Z,41.10
2017-09-22T19:02:23.488Z,32.67
2017-09-22T19:04:50.120Z,33.53
2017-09-22T19:07:16.759Z,35.40
2017-09-22T19:09:43.403Z,40.00
2017-09-22T19:12:10.043Z,38.13
2017-09-22T19:14:36.711Z,36.80
2017-09-22T19:17:03.350Z,37.43
2017-09-22T19:19:29.976Z,36.63
2017-09-22T19:21:56.608Z,35.70
2017-09-22T19:24:23.232Z,39.13
2017-09-22T19:26:49.899Z,41.73
2017-09-22T19:29:16.559Z,42.10
2017-09-22T19:31:43.194Z,36.77
2017-09-22T19:34:09.849Z,40.90
2017-09-22T19:36:36.527Z,42.03
2017-09-22T19:39:03.182Z,41.93
2017-09-22T19:41:29.822Z,48.00
2017-09-22T19:43:56.444Z,41.33
2017-09-22T19:46:23.100Z,41.43
2017-09-22T19:48:49.766Z,44.53
2017-09-22T19:51:16.409Z,46.00
2017-09-22T19:53:43.045Z,45.87
2017-09-22T19:56:09.679Z,45.37
2017-09-22T19:58:36.357Z,44.40
2017-09-22T20:01:02.990Z,45.20
2017-09-22T20:03:29.639Z,40.93
2017-09-22T20:05:56.279Z,41.10
2017-09-22T20:08:22.960Z,42.17
2017-09-22T20:10:49.570Z,40.03
2017-09-22T20:13:16.213Z,41.20
2017-09-22T20:15:42.858Z,50.03
2017-09-22T20:18:09.553Z,46.37
2017-09-22T20:20:36.192Z,44.70
2017-09-22T20:23:02.837Z,49.13
2017-09-22T20:25:29.471Z,49.37
2017-09-22T20:27:56.150Z,50.33
2017-09-22T20:30:22.793Z,46.60
2017-09-22T20:32:49.431Z,52.83
2017-09-22T20:35:16.967Z,50.27
2017-09-22T20:37:43.612Z,53.20
2017-09-22T20:40:10.237Z,52.90
2017-09-22T20:42:36.896Z,49.20
2017-09-22T20:45:03.566Z,51.33
2017-09-22T20:47:30.201Z,50.43
2017-09-22T20:49:56.831Z,62.43
2017-09-22T20:52:23.471Z,59.87
2017-09-22T20:54:50.092Z,54.10
2017-09-22T20:57:16.743Z,47.53
2017-09-22T20:59:43.379Z,55.90
2017-09-22T21:02:09.995Z,54.10
2017-09-22T21:04:36.659Z,55.97
2017-09-22T21:07:03.279Z,53.23
2017-09-22T21:09:29.944Z,57.13
2017-09-22T21:11:56.591Z,62.63
2017-09-22T21:14:23.243Z,62.07
2017-09-22T21:16:49.962Z,69.40
2017-09-22T21:19:16.607Z,64.17
2017-09-22T21:21:43.252Z,52.27
2017-09-22T21:24:09.915Z,63.47
2017-09-22T21:26:36.573Z,67.23
2017-09-22T21:29:03.210Z,67.47
2017-09-22T21:31:29.847Z,68.10
2017-09-22T21:33:56.499Z,60.23
2017-09-22T21:36:23.114Z,55.20
2017-09-22T21:38:49.769Z,50.90
2017-09-22T21:41:16.408Z,62.53
2017-09-22T21:43:43.050Z,52.87
2017-09-22T21:46:09.711Z,63.50
2017-09-22T21:48:36.348Z,56.10
2017-09-22T21:51:02.991Z,69.20
2017-09-22T21:53:29.636Z,62.50
2017-09-22T21:55:56.269Z,60.10
2017-09-22T21:58:22.888Z,61.23
2017-09-22T22:00:49.528Z,57.67
2017-09-22T22:03:21.954Z,61.67
2017-09-22T22:05:48.614Z,58.63
2017-09-22T22:08:15.242Z,60.67
2017-09-22T22:10:41.911Z,62.73
2017-09-22T22:13:08.552Z,68.63
2017-09-22T22:15:35.184Z,72.40
2017-09-22T22:18:01.822Z,63.77
2017-09-22T22:20:28.477Z,65.63
2017-09-22T22:22:55.095Z,73.90
2017-09-22T22:25:21.731Z,73.53
2017-09-22T22:27:48.360Z,72.30
2017-09-22T22:30:14.974Z,71.00
2017-09-22T22:32:41.636Z,77.83
2017-09-22T22:35:08.289Z,72.23
2017-09-22T22:37:34.935Z,70.93
2017-09-22T22:40:01.587Z,73.67
2017-09-22T22:42:28.225Z,80.93
2017-09-22T22:44:54.858Z,75.17
2017-09-22T22:47:21.500Z,79.20
2017-09-22T22:49:48.131Z,79.37
2017-09-22T22:52:14.752Z,75.10
2017-09-22T22:54:41.418Z,75.00
2017-09-22T22:57:08.043Z,73.93
2017-09-22T22:59:34.687Z,81.70
2017-09-22T23:02:01.327Z,72.13
2017-09-22T23:04:27.946Z,84.20
2017-09-22T23:06:54.598Z,77.07
2017-09-22T23:09:21.219Z,76.50
2017-09-22T23:11:47.834Z,84.93
2017-09-22T23:14:14.477Z,79.27
2017-09-22T23:16:41.119Z,77.23
2017-09-22T23:19:07.768Z,76.50
2017-09-22T23:21:34.410Z,78.60
2017-09-22T23:24:01.054Z,70.37
2017-09-22T23:26:27.740Z,78.93
2017-09-22T23:28:54.772Z,84.93
2017-09-22T23:31:21.390Z,80.33
2017-09-22T23:33:48.029Z,75.00
2017-09-22T23:36:14.678Z,75.80
2017-09-22T23:38:41.304Z,80.70
2017-09-22T23:41:07.939Z,78.07
2017-09-22T23:43:34.563Z,75.40
2017-09-22T23:46:01.207Z,87.40
2017-09-22T23:48:27.855Z,87.10
2017-09-22T23:50:54.477Z,87.93
2017-09-22T23:53:21.120Z,88.57
2017-09-22T23:55:47.743Z,89.00
2017-09-22T23:58:14.379Z,85.00
